createdAt,value
2019-02-17T00:01:25.504Z,4.73
2019-02-17T00:03:51.540Z,4.63
2019-02-17T00:06:17.370Z,4.59
2019-02-17T00:08:43.160Z,4.57
2019-02-17T00:11:09.290Z,4.52
2019-02-17T00:13:35.056Z,4.49
2019-02-17T00:16:00.882Z,4.41
2019-02-17T00:18:26.663Z,4.43
2019-02-17T00:20:52.695Z,4.49
2019-02-17T00:23:18.775Z,4.44
2019-02-17T00:25:44.585Z,4.50
2019-02-17T00:28:10.386Z,4.56
2019-02-17T00:30:36.172Z,4.55
2019-02-17T00:33:02.216Z,4.54
2019-02-17T00:35:28.007Z,4.54
2019-02-17T00:37:53.856Z,4.50
2019-02-17T00:40:19.762Z,4.32
2019-02-17T00:42:45.560Z,4.14
2019-02-17T00:45:11.367Z,4.07
2019-02-17T00:47:37.164Z,4.09
2019-02-17T00:50:06.017Z,4.15
2019-02-17T00:52:32.085Z,4.13
2019-02-17T00:54:57.938Z,4.04
2019-02-17T00:57:23.950Z,3.93
2019-02-17T00:59:51.558Z,3.93
2019-02-17T01:02:17.652Z,3.93
2019-02-17T01:04:46.328Z,3.93
2019-02-17T01:07:12.422Z,4.02
2019-02-17T01:09:41.345Z,4.05
2019-02-17T01:12:07.152Z,4.09
2019-02-17T01:14:32.980Z,4.08
2019-02-17T01:16:58.790Z,4.15
2019-02-17T01:19:24.914Z,4.07
2019-02-17T01:21:52.391Z,4.02
2019-02-17T01:24:18.199Z,3.87
2019-02-17T01:26:49.203Z,3.93
2019-02-17T01:29:20.387Z,3.96
2019-02-17T01:31:43.326Z,4.00
2019-02-17T01:34:09.834Z,3.91
2019-02-17T01:36:38.425Z,3.71
2019-02-17T01:39:05.865Z,3.74
2019-02-17T01:41:31.660Z,3.72
2019-02-17T01:43:57.485Z,3.78
2019-02-17T01:46:26.123Z,3.80
2019-02-17T01:48:52.264Z,3.74
2019-02-17T01:51:18.055Z,3.79
2019-02-17T01:53:43.870Z,3.82
2019-02-17T01:56:09.666Z,3.90
2019-02-17T01:58:38.608Z,3.98
2019-02-17T02:01:04.441Z,3.97
2019-02-17T02:03:33.540Z,3.96
2019-02-17T02:05:59.324Z,3.95
2019-02-17T02:08:28.143Z,3.89
2019-02-17T02:10:53.961Z,3.86
2019-02-17T02:13:22.522Z,3.90
2019-02-17T02:15:48.331Z,3.87
2019-02-17T02:18:16.900Z,3.84
2019-02-17T02:20:43.341Z,3.93
2019-02-17T02:23:11.939Z,3.88
2019-02-17T02:25:37.761Z,3.76
2019-02-17T02:28:03.858Z,3.80
2019-02-17T02:30:29.673Z,3.90
2019-02-17T02:32:55.734Z,3.89
2019-02-17T02:35:24.494Z,3.75
2019-02-17T02:37:50.573Z,3.69
2019-02-17T02:40:19.589Z,3.62
2019-02-17T02:42:45.618Z,3.64
2019-02-17T02:45:14.487Z,3.65
2019-02-17T02:47:40.579Z,3.60
2019-02-17T02:50:09.135Z,3.67
2019-02-17T02:52:34.945Z,3.61
2019-02-17T02:55:03.852Z,3.65
2019-02-17T02:57:29.666Z,3.62
2019-02-17T02:59:58.227Z,3.53
2019-02-17T03:02:24.297Z,3.46
2019-02-17T03:04:50.341Z,3.56
2019-02-17T03:07:16.168Z,3.48
2019-02-17T03:09:41.975Z,3.57
2019-02-17T03:12:08.266Z,3.48
2019-02-17T03:14:34.358Z,3.51
2019-02-17T03:17:03.289Z,3.53
2019-02-17T03:19:29.326Z,3.49
2019-02-17T03:21:57.937Z,3.45
2019-02-17T03:24:24.019Z,3.45
2019-02-17T03:26:53.176Z,3.42
2019-02-17T03:29:19.015Z,3.43
2019-02-17T03:31:47.672Z,3.43
2019-02-17T03:34:13.558Z,3.40
2019-02-17T03:37:03.885Z,3.40
2019-02-17T03:39:29.699Z,3.35
2019-02-17T03:41:55.754Z,3.31
2019-02-17T03:44:21.539Z,3.24
2019-02-17T03:46:47.332Z,3.25
2019-02-17T03:49:13.176Z,3.23
2019-02-17T03:51:38.995Z,3.24
2019-02-17T03:54:05.072Z,3.09
2019-02-17T03:56:30.944Z,3.04
2019-02-17T03:58:56.725Z,3.04
2019-02-17T04:01:22.836Z,3.05
2019-02-17T04:03:48.668Z,2.97
2019-02-17T04:06:14.774Z,2.98
2019-02-17T04:08:41.055Z,2.90
2019-02-17T04:11:07.129Z,2.96
2019-02-17T04:13:33.028Z,3.03
2019-02-17T04:15:58.837Z,3.00
2019-02-17T04:18:24.639Z,2.95
2019-02-17T04:20:50.457Z,2.93
2019-02-17T04:23:16.494Z,2.98
2019-02-17T04:25:42.291Z,2.96
2019-02-17T04:28:08.396Z,2.97
2019-02-17T04:30:34.535Z,2.97
2019-02-17T04:33:00.326Z,3.01
2019-02-17T04:35:29.202Z,2.97
2019-02-17T04:37:55.279Z,3.00
2019-02-17T04:40:24.207Z,3.00
2019-02-17T04:42:50.057Z,3.01
2019-02-17T04:45:18.804Z,2.96
2019-02-17T04:47:44.613Z,2.94
2019-02-17T04:50:13.824Z,2.85
2019-02-17T04:52:39.647Z,2.88
2019-02-17T04:55:06.730Z,2.95
2019-02-17T04:57:32.596Z,2.93
2019-02-17T04:59:58.360Z,2.90
2019-02-17T05:02:24.154Z,2.97
2019-02-17T05:04:50.309Z,2.81
2019-02-17T05:07:19.115Z,2.63
2019-02-17T05:09:45.208Z,2.70
2019-02-17T05:12:13.289Z,2.73
2019-02-17T05:14:39.408Z,2.76
2019-02-17T05:17:10.060Z,2.62
2019-02-17T05:19:36.121Z,2.60
2019-02-17T05:22:05.070Z,2.47
2019-02-17T05:24:30.862Z,2.55
2019-02-17T05:26:59.702Z,2.55
2019-02-17T05:29:25.928Z,2.60
2019-02-17T05:31:52.015Z,2.56
2019-02-17T05:34:17.840Z,2.62
2019-02-17T05:36:43.635Z,2.60
2019-02-17T05:39:09.448Z,2.61
2019-02-17T05:41:35.546Z,2.57
2019-02-17T05:44:06.273Z,2.50
2019-02-17T05:46:32.123Z,2.48
2019-02-17T05:49:00.996Z,2.58
2019-02-17T05:51:26.807Z,2.37
2019-02-17T05:53:55.394Z,2.28
2019-02-17T05:56:21.441Z,2.09
2019-02-17T05:58:50.311Z,2.12
2019-02-17T06:01:16.114Z,2.20
2019-02-17T06:03:44.798Z,2.21
2019-02-17T06:06:11.247Z,2.21
2019-02-17T06:08:37.067Z,2.11
2019-02-17T06:11:02.866Z,2.00
2019-02-17T06:13:28.677Z,2.08
2019-02-17T06:15:54.522Z,2.01
2019-02-17T06:18:20.363Z,1.99
2019-02-17T06:20:50.751Z,2.10
2019-02-17T06:23:16.907Z,2.05
2019-02-17T06:25:44.068Z,2.00
2019-02-17T06:28:09.887Z,2.14
2019-02-17T06:30:40.965Z,2.09
2019-02-17T06:33:06.804Z,1.93
2019-02-17T06:35:35.474Z,1.98
2019-02-17T06:38:01.269Z,2.04
2019-02-17T06:40:28.637Z,1.94
2019-02-17T06:42:54.427Z,2.00
2019-02-17T06:45:20.206Z,2.10
2019-02-17T06:47:46.064Z,2.16
2019-02-17T06:50:11.852Z,2.11
2019-02-17T06:52:41.074Z,2.08
2019-02-17T06:55:25.606Z,2.14
2019-02-17T06:57:51.684Z,2.56
2019-02-17T07:00:19.421Z,3.08
2019-02-17T07:02:45.223Z,3.67
2019-02-17T07:05:18.505Z,4.34
2019-02-17T07:07:44.314Z,4.95
2019-02-17T07:10:10.110Z,4.59
2019-02-17T07:12:35.949Z,4.40
2019-02-17T07:15:02.852Z,4.88
2019-02-17T07:17:28.658Z,5.50
2019-02-17T07:19:54.459Z,5.83
2019-02-17T07:22:20.284Z,6.53
2019-02-17T07:24:46.083Z,7.07
2019-02-17T07:27:12.196Z,7.95
2019-02-17T07:29:38.103Z,8.43
2019-02-17T07:32:03.913Z,8.91
2019-02-17T07:34:29.762Z,9.29
2019-02-17T07:36:55.793Z,9.62
2019-02-17T07:39:21.867Z,10.17
2019-02-17T07:41:47.694Z,10.54
2019-02-17T07:44:13.761Z,11.37
2019-02-17T07:46:39.551Z,11.44
2019-02-17T07:49:05.353Z,11.00
2019-02-17T07:51:31.260Z,11.80
2019-02-17T07:54:00.113Z,11.97
2019-02-17T07:56:26.250Z,12.00
2019-02-17T07:58:52.084Z,12.48
2019-02-17T08:01:17.876Z,12.75
2019-02-17T08:03:43.727Z,12.93
2019-02-17T08:06:11.129Z,13.86
2019-02-17T08:08:37.257Z,14.21
2019-02-17T08:11:06.206Z,14.28
2019-02-17T08:13:32.025Z,14.60
2019-02-17T08:16:01.322Z,14.62
2019-02-17T08:18:27.422Z,14.47
2019-02-17T08:20:56.690Z,14.34
2019-02-17T08:23:22.516Z,14.70
2019-02-17T08:25:51.726Z,15.03
2019-02-17T08:28:17.543Z,15.13
2019-02-17T08:30:46.609Z,15.11
2019-02-17T08:33:12.449Z,15.36
2019-02-17T08:35:38.272Z,15.01
2019-02-17T08:38:04.069Z,15.25
2019-02-17T08:40:30.172Z,15.37
2019-02-17T08:42:55.975Z,17.01
2019-02-17T08:45:22.049Z,17.02
2019-02-17T08:47:50.499Z,16.48
2019-02-17T08:50:16.302Z,16.56
2019-02-17T08:52:46.754Z,16.72
2019-02-17T08:55:12.571Z,17.21
2019-02-17T08:57:39.939Z,17.21
2019-02-17T09:00:09.214Z,17.32
